createdAt,value
2019-02-17T00:01:44.142Z,99959.85
2019-02-17T00:04:13.571Z,99955.61
2019-02-17T00:06:43.015Z,99951.78
2019-02-17T00:09:13.218Z,99956.44
2019-02-17T00:11:42.669Z,99958.17
2019-02-17T00:14:12.169Z,99956.89
2019-02-17T00:16:41.608Z,99953.06
2019-02-17T00:19:11.044Z,99956.93
2019-02-17T00:21:40.486Z,99951.79
2019-02-17T00:24:09.911Z,99948.82
2019-02-17T00:26:39.361Z,99948.41
2019-02-17T00:29:08.793Z,99945.41
2019-02-17T00:31:38.240Z,99946.72
2019-02-17T00:34:07.675Z,99946.72
2019-02-17T00:36:37.124Z,99945.44
2019-02-17T00:39:07.497Z,99945.85
2019-02-17T00:41:36.941Z,99947.50
2019-02-17T00:44:06.374Z,99944.49
2019-02-17T00:46:35.808Z,99944.91
2019-02-17T00:49:05.243Z,99951.67
2019-02-17T00:51:34.685Z,99946.94
2019-02-17T00:54:04.119Z,99947.31
2019-02-17T00:56:33.566Z,99940.06
2019-02-17T00:59:09.638Z,99937.95
2019-02-17T01:01:34.165Z,99939.28
2019-02-17T01:04:03.596Z,99939.27
2019-02-17T01:06:33.037Z,99936.19
2019-02-17T01:09:02.935Z,99932.34
2019-02-17T01:11:32.387Z,99933.63
2019-02-17T01:14:01.819Z,99943.38
2019-02-17T01:16:32.906Z,99941.28
2019-02-17T01:19:02.581Z,99939.20
2019-02-17T01:21:32.017Z,99943.90
2019-02-17T01:24:01.458Z,99940.94
2019-02-17T01:26:30.903Z,99943.84
2019-02-17T01:29:00.333Z,99938.73
2019-02-17T01:31:29.759Z,99933.56
2019-02-17T01:34:00.835Z,99936.48
2019-02-17T01:36:30.277Z,99930.99
2019-02-17T01:38:59.730Z,99938.23
2019-02-17T01:41:29.162Z,99931.02
2019-02-17T01:43:58.619Z,99923.75
2019-02-17T01:46:28.030Z,99923.30
2019-02-17T01:48:57.478Z,99921.59
2019-02-17T01:51:26.917Z,99921.84
2019-02-17T01:53:56.358Z,99919.27
2019-02-17T01:56:26.010Z,99920.94
2019-02-17T01:58:55.451Z,99922.63
2019-02-17T02:01:24.886Z,99916.25
2019-02-17T02:03:54.343Z,99912.88
2019-02-17T02:06:23.771Z,99916.25
2019-02-17T02:08:53.219Z,99912.00
2019-02-17T02:11:22.650Z,99909.84
2019-02-17T02:13:52.094Z,99912.39
2019-02-17T02:16:21.521Z,99913.20
2019-02-17T02:18:50.961Z,99916.14
2019-02-17T02:21:20.402Z,99913.20
2019-02-17T02:23:49.855Z,99912.80
2019-02-17T02:26:19.278Z,99918.39
2019-02-17T02:28:48.723Z,99908.57
2019-02-17T02:31:18.388Z,99912.00
2019-02-17T02:33:48.113Z,99915.77
2019-02-17T02:36:17.548Z,99913.61
2019-02-17T02:38:46.989Z,99914.06
2019-02-17T02:41:16.422Z,99914.08
2019-02-17T02:43:46.822Z,99916.72
2019-02-17T02:46:16.253Z,99909.48
2019-02-17T02:48:45.693Z,99910.37
2019-02-17T02:51:15.460Z,99910.36
2019-02-17T02:53:44.897Z,99906.95
2019-02-17T02:56:14.328Z,99903.13
2019-02-17T02:58:43.770Z,99912.09
2019-02-17T03:01:13.872Z,99911.23
2019-02-17T03:03:46.014Z,99902.30
2019-02-17T03:06:18.584Z,99911.43
2019-02-17T03:08:48.025Z,99907.20
2019-02-17T03:11:17.451Z,99911.52
2019-02-17T03:13:46.888Z,99907.23
2019-02-17T03:16:16.322Z,99905.14
2019-02-17T03:18:45.767Z,99908.48
2019-02-17T03:21:16.029Z,99902.11
2019-02-17T03:23:45.476Z,99907.20
2019-02-17T03:26:14.911Z,99904.17
2019-02-17T03:28:44.346Z,99901.22
2019-02-17T03:31:13.791Z,99904.06
2019-02-17T03:33:43.220Z,99910.34
2019-02-17T03:36:12.660Z,99909.78
2019-02-17T03:38:42.091Z,99908.41
2019-02-17T03:41:11.608Z,99910.92
2019-02-17T03:43:41.041Z,99902.58
2019-02-17T03:46:10.770Z,99900.42
2019-02-17T03:48:40.207Z,99894.55
2019-02-17T03:51:09.643Z,99899.02
2019-02-17T03:53:39.082Z,99897.75
2019-02-17T03:56:08.524Z,99898.25
2019-02-17T03:58:37.955Z,99911.34
2019-02-17T04:01:07.398Z,99901.06
2019-02-17T04:03:36.839Z,99904.88
2019-02-17T04:06:06.287Z,99904.32
2019-02-17T04:08:35.724Z,99906.67
2019-02-17T04:11:05.236Z,99901.98
2019-02-17T04:13:34.753Z,99904.18
2019-02-17T04:16:04.205Z,99903.45
2019-02-17T04:18:33.645Z,99906.31
2019-02-17T04:21:03.091Z,99907.03
2019-02-17T04:23:32.527Z,99898.95
2019-02-17T04:26:01.975Z,99903.78
2019-02-17T04:28:31.407Z,99900.88
2019-02-17T04:31:00.855Z,99903.19
2019-02-17T04:33:30.294Z,99902.77
2019-02-17T04:35:59.745Z,99900.48
2019-02-17T04:38:29.173Z,99900.49
2019-02-17T04:40:58.621Z,99900.97
2019-02-17T04:43:28.403Z,99900.24
2019-02-17T04:45:57.851Z,99910.31
2019-02-17T04:48:27.294Z,99906.48
2019-02-17T04:50:56.747Z,99904.72
2019-02-17T04:53:26.183Z,99900.09
2019-02-17T04:55:55.627Z,99902.20
2019-02-17T04:58:25.066Z,99902.17
2019-02-17T05:00:54.521Z,99899.70
2019-02-17T05:03:24.080Z,99906.88
2019-02-17T05:05:53.485Z,99901.67
2019-02-17T05:08:22.919Z,99902.14
2019-02-17T05:10:52.363Z,99903.80
2019-02-17T05:13:21.796Z,99903.84
2019-02-17T05:15:51.246Z,99901.38
2019-02-17T05:18:20.688Z,99903.95
2019-02-17T05:20:50.126Z,99892.14
2019-02-17T05:23:19.571Z,99902.42
2019-02-17T05:25:49.583Z,99902.37
2019-02-17T05:28:19.018Z,99904.84
2019-02-17T05:30:52.775Z,99905.62
2019-02-17T05:33:19.617Z,99910.34
2019-02-17T05:35:49.072Z,99913.25
2019-02-17T05:38:18.507Z,99911.02
2019-02-17T05:40:47.959Z,99904.27
2019-02-17T05:43:17.399Z,99911.00
2019-02-17T05:45:49.272Z,99908.78
2019-02-17T05:48:18.701Z,99909.66
2019-02-17T05:50:48.149Z,99907.95
2019-02-17T05:53:17.584Z,99909.27
2019-02-17T05:55:47.044Z,99906.33
2019-02-17T05:58:16.783Z,99907.22
2019-02-17T06:00:46.493Z,99905.45
2019-02-17T06:03:15.944Z,99914.28
2019-02-17T06:05:45.381Z,99912.69
2019-02-17T06:08:14.822Z,99916.89
2019-02-17T06:10:44.258Z,99913.98
2019-02-17T06:13:13.707Z,99925.43
2019-02-17T06:15:43.145Z,99921.16
2019-02-17T06:18:12.594Z,99918.93
2019-02-17T06:20:42.037Z,99919.23
2019-02-17T06:23:11.486Z,99917.19
2019-02-17T06:25:40.921Z,99928.85
2019-02-17T06:28:10.378Z,99922.44
2019-02-17T06:30:39.810Z,99923.18
2019-02-17T06:33:09.260Z,99925.45
2019-02-17T06:38:03.944Z,99931.66
2019-02-17T06:40:33.364Z,99932.17
2019-02-17T06:43:02.807Z,99937.31
2019-02-17T06:45:32.239Z,99936.21
2019-02-17T06:48:01.696Z,99951.31
2019-02-17T06:50:32.786Z,99946.13
2019-02-17T06:53:02.367Z,99949.64
2019-02-17T06:55:39.443Z,99948.78
2019-02-17T06:58:08.899Z,99946.95
2019-02-17T07:00:39.973Z,99947.77
2019-02-17T07:03:09.418Z,99949.08
2019-02-17T07:05:49.865Z,99947.77
2019-02-17T07:08:19.342Z,99943.23
2019-02-17T07:10:48.740Z,99940.89
2019-02-17T07:13:18.188Z,99936.73
2019-02-17T07:15:47.618Z,99929.12
2019-02-17T07:18:17.075Z,99932.01
2019-02-17T07:20:47.173Z,99936.55
2019-02-17T07:23:16.615Z,99938.69
2019-02-17T07:25:46.059Z,99933.53
2019-02-17T07:28:15.505Z,99934.20
2019-02-17T07:30:44.941Z,99936.91
2019-02-17T07:33:14.388Z,99937.84
2019-02-17T07:35:43.833Z,99939.18
2019-02-17T07:38:13.356Z,99935.84
2019-02-17T07:40:42.797Z,99940.24
2019-02-17T07:43:12.996Z,99935.56
2019-02-17T07:45:42.449Z,99931.03
2019-02-17T07:48:11.882Z,99935.36
2019-02-17T07:50:41.322Z,99933.36
2019-02-17T07:53:10.753Z,99933.84
2019-02-17T07:55:40.198Z,99928.39
2019-02-17T07:58:09.626Z,99925.86
2019-02-17T08:00:39.075Z,99927.61
2019-02-17T08:03:08.513Z,99921.30
2019-02-17T08:05:37.960Z,99919.63
2019-02-17T08:08:07.396Z,99920.97
2019-02-17T08:10:36.832Z,99918.05
2019-02-17T08:13:06.268Z,99916.87
2019-02-17T08:15:35.713Z,99914.39
2019-02-17T08:18:05.133Z,99913.61
2019-02-17T08:20:36.512Z,99904.78
2019-02-17T08:23:05.746Z,99908.20
2019-02-17T08:25:35.192Z,99905.34
2019-02-17T08:28:04.623Z,99903.27
2019-02-17T08:30:34.078Z,99910.14
2019-02-17T08:33:03.506Z,99908.94
2019-02-17T08:35:32.949Z,99908.94
2019-02-17T08:38:03.521Z,99900.02
2019-02-17T08:40:33.139Z,99900.88
2019-02-17T08:43:02.578Z,99901.36
2019-02-17T08:45:32.013Z,99895.90
2019-02-17T08:48:01.446Z,99895.09
2019-02-17T08:50:30.894Z,99893.86
2019-02-17T08:53:00.319Z,99896.45
2019-02-17T08:55:29.762Z,99891.80
2019-02-17T08:57:59.206Z,99888.41
2019-02-17T09:00:28.641Z,99881.61
2019-02-17T09:02:58.070Z,99881.22
2019-02-17T09:05:27.511Z,99879.51
2019-02-17T09:07:56.943Z,99876.11
2019-02-17T09:10:26.384Z,99882.48
2019-02-17T09:12:55.810Z,99881.23
2019-02-17T09:15:25.255Z,99878.66
2019-02-17T09:17:54.685Z,99874.39
2019-02-17T09:20:24.132Z,99874.81
2019-02-17T09:22:53.561Z,99867.58
2019-02-17T09:25:23.004Z,99869.70
2019-02-17T09:27:52.444Z,99871.41
2019-02-17T09:30:21.884Z,99862.03
2019-02-17T09:32:51.314Z,99866.28
2019-02-17T09:35:20.756Z,99865.42
2019-02-17T09:37:50.182Z,99861.97
2019-02-17T09:40:19.627Z,99861.95
2019-02-17T09:42:49.059Z,99863.23
2019-02-17T09:45:18.656Z,99860.66
2019-02-17T09:47:48.108Z,99854.25
2019-02-17T09:50:17.541Z,99858.48
2019-02-17T09:52:47.030Z,99855.47
2019-02-17T09:55:16.417Z,99858.42
2019-02-17T09:57:45.864Z,99855.39
2019-02-17T10:00:16.431Z,99856.67
2019-02-17T10:02:45.875Z,99855.80
2019-02-17T10:05:15.680Z,99851.05
2019-02-17T10:07:45.126Z,99857.40
2019-02-17T10:10:21.577Z,99849.69
2019-02-17T10:12:51.081Z,99848.80
2019-02-17T10:15:20.515Z,99854.73
2019-02-17T10:17:49.952Z,99853.39
2019-02-17T10:20:19.383Z,99840.95
2019-02-17T10:22:48.835Z,99846.83
2019-02-17T10:25:18.255Z,99844.17
2019-02-17T10:27:48.010Z,99843.31
2019-02-17T10:30:18.950Z,99836.34
2019-02-17T10:32:48.387Z,99842.25
2019-02-17T10:35:17.814Z,99843.91
2019-02-17T10:37:47.261Z,99835.73
2019-02-17T10:40:19.015Z,99836.08
2019-02-17T10:42:48.450Z,99830.84
2019-02-17T10:45:17.876Z,99827.77
2019-02-17T10:47:47.317Z,99830.25
2019-02-17T10:50:16.762Z,99824.20
2019-02-17T10:52:46.201Z,99821.06
2019-02-17T10:55:15.942Z,99818.80
2019-02-17T10:57:45.386Z,99815.67
2019-02-17T11:00:20.529Z,99808.70
2019-02-17T11:02:50.040Z,99802.25
2019-02-17T11:05:19.480Z,99800.79
2019-02-17T11:07:48.998Z,99802.84
2019-02-17T11:10:18.415Z,99788.58
2019-02-17T11:12:48.109Z,99790.17
2019-02-17T11:15:21.902Z,99788.80
2019-02-17T11:17:51.352Z,99789.09
2019-02-17T11:20:20.777Z,99787.64
2019-02-17T11:22:50.230Z,99781.53
2019-02-17T11:25:19.666Z,99776.70
2019-02-17T11:27:49.104Z,99771.72
2019-02-17T11:30:22.584Z,99767.73
2019-02-17T11:32:58.056Z,99760.75
2019-02-17T11:35:23.165Z,99760.98
2019-02-17T11:37:52.617Z,99755.28
2019-02-17T11:40:22.043Z,99756.00
2019-02-17T11:42:51.487Z,99744.65
2019-02-17T11:45:20.986Z,99742.40
2019-02-17T11:47:50.428Z,99732.46
2019-02-17T11:50:19.846Z,99727.95
2019-02-17T11:52:49.286Z,99734.60
2019-02-17T11:55:18.714Z,99720.33
2019-02-17T11:57:48.157Z,99721.42
2019-02-17T12:00:22.899Z,99713.43
2019-02-17T12:02:52.336Z,99715.80
2019-02-17T12:05:21.768Z,99713.50
2019-02-17T12:07:51.210Z,99707.20
2019-02-17T12:10:20.648Z,99705.70
2019-02-17T12:12:50.095Z,99697.76
2019-02-17T12:15:19.529Z,99695.39
2019-02-17T12:17:48.979Z,99693.40
2019-02-17T12:20:34.213Z,99684.91
2019-02-17T12:23:05.298Z,99680.44
2019-02-17T12:25:36.382Z,99671.89
2019-02-17T12:28:07.466Z,99662.52
2019-02-17T12:30:37.975Z,99660.95
2019-02-17T12:33:17.762Z,99659.07
2019-02-17T12:35:38.583Z,99656.69
2019-02-17T12:38:09.905Z,99656.84
2019-02-17T12:40:39.339Z,99653.97
2019-02-17T12:43:08.789Z,99640.80
2019-02-17T12:45:38.430Z,99644.52
2019-02-17T12:48:08.065Z,99641.61
2019-02-17T12:50:37.508Z,99640.14
2019-02-17T12:53:06.969Z,99632.89
2019-02-17T12:55:36.415Z,99631.80
2019-02-17T12:58:05.851Z,99622.47
2019-02-17T13:00:35.303Z,99626.94
2019-02-17T13:03:05.008Z,99625.24
2019-02-17T13:05:34.451Z,99622.74
2019-02-17T13:08:03.892Z,99614.98
2019-02-17T13:10:33.345Z,99604.37
2019-02-17T13:13:04.743Z,99605.66
2019-02-17T13:15:33.961Z,99593.47
2019-02-17T13:18:03.407Z,99591.31
2019-02-17T13:20:32.866Z,99577.83
2019-02-17T13:23:02.375Z,99583.63
2019-02-17T13:25:31.826Z,99581.75
2019-02-17T13:28:01.460Z,99575.95
2019-02-17T13:30:30.903Z,99571.14
2019-02-17T13:33:00.341Z,99565.36
2019-02-17T13:35:29.792Z,99564.06
2019-02-17T13:37:59.304Z,99563.44
2019-02-17T13:40:29.324Z,99558.05
2019-02-17T13:42:58.771Z,99559.08
2019-02-17T13:45:28.221Z,99556.83
2019-02-17T13:47:57.661Z,99563.90
2019-02-17T13:50:27.117Z,99554.89
2019-02-17T13:52:56.555Z,99554.95
2019-02-17T13:55:26.007Z,99551.88
2019-02-17T13:57:55.446Z,99550.22
2019-02-17T14:00:24.908Z,99549.22
2019-02-17T14:02:54.359Z,99548.27
2019-02-17T14:05:23.819Z,99535.30
2019-02-17T14:07:53.258Z,99534.38
2019-02-17T14:10:22.714Z,99532.97
2019-02-17T14:12:52.147Z,99533.27
2019-02-17T14:15:21.968Z,99531.09
2019-02-17T14:17:51.416Z,99530.09
2019-02-17T14:20:20.870Z,99525.81
2019-02-17T14:22:50.302Z,99528.33
2019-02-17T14:25:19.750Z,99520.47
2019-02-17T14:27:49.192Z,99524.16
2019-02-17T14:30:20.381Z,99514.89
2019-02-17T14:32:49.822Z,99505.21
2019-02-17T14:35:19.277Z,99509.97
2019-02-17T14:37:48.718Z,99513.08
2019-02-17T14:40:18.159Z,99507.89
2019-02-17T14:42:47.598Z,99503.40
2019-02-17T14:45:17.980Z,99497.06
2019-02-17T14:47:47.417Z,99496.80
2019-02-17T14:50:16.866Z,99493.45
2019-02-17T14:52:46.307Z,99493.73
2019-02-17T14:55:15.830Z,99499.56
2019-02-17T14:57:45.270Z,99494.52
2019-02-17T15:00:16.322Z,99485.25
2019-02-17T15:02:45.772Z,99485.25
2019-02-17T15:05:15.281Z,99481.88
2019-02-17T15:07:44.721Z,99482.50
2019-02-17T15:10:15.311Z,99486.86
2019-02-17T15:12:44.751Z,99482.87
2019-02-17T15:15:16.403Z,99473.86
2019-02-17T15:17:45.843Z,99469.28
2019-02-17T15:20:22.742Z,99464.69
2019-02-17T15:22:52.173Z,99466.69
2019-02-17T15:25:21.618Z,99457.75
2019-02-17T15:27:51.060Z,99458.88
2019-02-17T15:30:20.501Z,99449.59
2019-02-17T15:32:49.939Z,99444.78
2019-02-17T15:35:19.390Z,99445.17
2019-02-17T15:37:48.822Z,99453.65
2019-02-17T15:40:18.270Z,99450.55
2019-02-17T15:42:47.709Z,99447.33
2019-02-17T15:45:17.161Z,99447.55
2019-02-17T15:47:46.593Z,99440.70
2019-02-17T15:50:16.409Z,99434.91
2019-02-17T15:52:45.855Z,99442.95
2019-02-17T15:55:15.974Z,99437.22
2019-02-17T15:57:45.407Z,99439.40
2019-02-17T16:00:17.834Z,99435.47
2019-02-17T16:02:47.268Z,99422.37
2019-02-17T16:05:16.719Z,99432.30
2019-02-17T16:07:46.156Z,99432.42
2019-02-17T16:10:17.713Z,99428.44
2019-02-17T16:12:47.150Z,99428.70
2019-02-17T16:15:26.045Z,99427.11
2019-02-17T16:17:55.482Z,99426.33
2019-02-17T16:20:24.927Z,99428.86
2019-02-17T16:22:54.367Z,99419.20
2019-02-17T16:25:23.815Z,99421.14
2019-02-17T16:27:53.261Z,99428.64
2019-02-17T16:30:23.918Z,99421.69
2019-02-17T16:32:53.357Z,99422.37
2019-02-17T16:35:22.817Z,99426.89
2019-02-17T16:37:52.252Z,99421.16
2019-02-17T16:40:21.691Z,99421.60
2019-02-17T16:42:51.139Z,99419.78
2019-02-17T16:45:20.576Z,99426.03
2019-02-17T16:47:50.022Z,99422.02
2019-02-17T16:50:31.398Z,99423.75
2019-02-17T16:53:00.852Z,99428.06
2019-02-17T16:55:30.289Z,99424.28
2019-02-17T16:57:59.731Z,99430.70
2019-02-17T17:00:29.234Z,99434.07
2019-02-17T17:02:58.749Z,99437.45
2019-02-17T17:05:28.183Z,99432.57
2019-02-17T17:07:57.626Z,99438.90
2019-02-17T17:10:27.064Z,99441.47
2019-02-17T17:12:56.521Z,99449.29
2019-02-17T17:15:25.963Z,99450.78
2019-02-17T17:17:55.416Z,99457.81
2019-02-17T17:20:24.918Z,99459.45
2019-02-17T17:22:54.383Z,99461.34
2019-02-17T17:25:23.877Z,99462.34
2019-02-17T17:27:53.353Z,99459.50
2019-02-17T17:30:22.786Z,99460.91
2019-02-17T17:32:52.255Z,99462.91
2019-02-17T17:35:21.702Z,99455.18
2019-02-17T17:37:51.151Z,99460.50
2019-02-17T17:40:20.581Z,99461.67
2019-02-17T17:42:50.029Z,99469.38
2019-02-17T17:45:21.861Z,99473.25
2019-02-17T17:47:51.376Z,99471.95
2019-02-17T17:50:20.814Z,99470.30
2019-02-17T17:52:50.245Z,99469.17
2019-02-17T17:55:19.683Z,99476.36
2019-02-17T17:57:49.112Z,99475.62
2019-02-17T18:00:20.720Z,99473.72
2019-02-17T18:02:50.157Z,99475.62
2019-02-17T18:05:19.581Z,99481.89
2019-02-17T18:07:49.021Z,99484.94
2019-02-17T18:10:18.716Z,99485.42
2019-02-17T18:12:48.161Z,99493.41
2019-02-17T18:15:21.430Z,99493.48
2019-02-17T18:17:54.644Z,99498.64
2019-02-17T18:20:22.393Z,99496.24
2019-02-17T18:22:51.834Z,99498.72
2019-02-17T18:25:21.267Z,99497.58
2019-02-17T18:27:50.708Z,99501.06
2019-02-17T18:30:23.117Z,99501.87
2019-02-17T18:32:52.557Z,99501.28
2019-02-17T18:35:21.985Z,99500.30
2019-02-17T18:37:51.425Z,99501.14
2019-02-17T18:40:21.569Z,99502.59
2019-02-17T18:42:51.010Z,99504.17
2019-02-17T18:45:20.435Z,99503.50
2019-02-17T18:47:49.882Z,99509.09
2019-02-17T18:50:19.940Z,99508.45
2019-02-17T18:52:49.460Z,99514.56
2019-02-17T18:55:18.892Z,99513.03
2019-02-17T18:57:50.698Z,99512.31
2019-02-17T19:00:23.363Z,99519.23
2019-02-17T19:02:52.876Z,99514.39
2019-02-17T19:05:31.517Z,99524.69
2019-02-17T19:07:53.475Z,99516.45
2019-02-17T19:10:22.900Z,99518.98
2019-02-17T19:12:52.344Z,99520.23
2019-02-17T19:15:22.705Z,99518.42
2019-02-17T19:17:52.138Z,99521.11
2019-02-17T19:20:34.617Z,99522.44
2019-02-17T19:23:04.067Z,99518.31
2019-02-17T19:25:35.361Z,99522.80
2019-02-17T19:28:04.790Z,99527.06
2019-02-17T19:30:34.213Z,99522.92
2019-02-17T19:33:03.651Z,99533.72
2019-02-17T19:35:41.407Z,99526.65
2019-02-17T19:38:04.257Z,99527.16
2019-02-17T19:40:33.761Z,99535.02
2019-02-17T19:43:03.615Z,99532.09
2019-02-17T19:45:33.108Z,99527.38
2019-02-17T19:48:02.546Z,99537.33
2019-02-17T19:50:31.970Z,99534.55
2019-02-17T19:53:01.404Z,99538.54
2019-02-17T19:55:30.831Z,99536.07
2019-02-17T19:58:00.267Z,99531.23
2019-02-17T20:00:29.692Z,99531.46
2019-02-17T20:03:16.597Z,99532.91
2019-02-17T20:05:59.477Z,99529.17
2019-02-17T20:08:28.923Z,99531.38
2019-02-17T20:10:58.355Z,99533.33
2019-02-17T20:13:27.808Z,99531.65
2019-02-17T20:15:57.895Z,99530.80
2019-02-17T20:18:27.327Z,99530.25
2019-02-17T20:20:56.754Z,99529.45
2019-02-17T20:23:26.355Z,99530.82
2019-02-17T20:25:57.893Z,99534.28
2019-02-17T20:28:40.583Z,99537.19
2019-02-17T20:30:58.190Z,99538.41
2019-02-17T20:33:27.628Z,99538.86
2019-02-17T20:36:02.670Z,99538.09
2019-02-17T20:38:28.215Z,99540.64
2019-02-17T20:40:57.642Z,99548.25
2019-02-17T20:43:27.068Z,99550.20
2019-02-17T20:45:56.512Z,99551.01
2019-02-17T20:48:25.944Z,99549.94
2019-02-17T20:50:55.392Z,99547.83
2019-02-17T20:53:24.824Z,99552.55
2019-02-17T20:55:54.263Z,99553.89
2019-02-17T20:58:23.689Z,99556.45
2019-02-17T21:00:53.121Z,99555.95
2019-02-17T21:03:22.551Z,99560.45
2019-02-17T21:05:52.055Z,99565.89
2019-02-17T21:08:21.483Z,99571.61
2019-02-17T21:10:51.748Z,99568.40
2019-02-17T21:13:21.173Z,99568.35
2019-02-17T21:15:50.684Z,99571.70
2019-02-17T21:18:20.118Z,99574.52
2019-02-17T21:20:49.563Z,99566.58
2019-02-17T21:23:18.978Z,99568.48
2019-02-17T21:25:48.583Z,99578.09
2019-02-17T21:28:18.013Z,99575.58
2019-02-17T21:30:47.455Z,99575.08
2019-02-17T21:33:16.880Z,99576.08
2019-02-17T21:35:46.319Z,99574.92
2019-02-17T21:38:15.742Z,99578.47
2019-02-17T21:40:45.175Z,99574.67
2019-02-17T21:43:14.606Z,99572.13
2019-02-17T21:45:44.052Z,99579.33
2019-02-17T21:48:13.471Z,99575.13
2019-02-17T21:50:42.908Z,99583.66
2019-02-17T21:53:20.464Z,99578.16
2019-02-17T21:55:43.503Z,99577.31
2019-02-17T21:58:12.934Z,99574.33
2019-02-17T22:00:42.372Z,99573.48
2019-02-17T22:03:11.805Z,99570.92
2019-02-17T22:05:41.814Z,99569.20
2019-02-17T22:08:11.244Z,99574.33
2019-02-17T22:10:40.680Z,99573.11
2019-02-17T22:13:10.106Z,99571.94
2019-02-17T22:15:39.547Z,99571.98
2019-02-17T22:18:08.973Z,99570.73
2019-02-17T22:20:38.404Z,99569.53
2019-02-17T22:23:07.836Z,99572.02
2019-02-17T22:25:37.285Z,99575.80
2019-02-17T22:28:06.704Z,99574.18
2019-02-17T22:30:36.142Z,99568.27
2019-02-17T22:33:05.567Z,99569.55
2019-02-17T22:35:35.009Z,99567.81
2019-02-17T22:38:04.441Z,99572.16
2019-02-17T22:40:33.872Z,99573.02
2019-02-17T22:43:03.300Z,99571.80
2019-02-17T22:45:32.722Z,99576.54
2019-02-17T22:48:02.209Z,99571.97
2019-02-17T22:50:31.595Z,99567.22
2019-02-17T22:53:01.791Z,99568.05
2019-02-17T22:55:31.214Z,99566.45
2019-02-17T22:58:00.669Z,99566.44
2019-02-17T23:00:56.575Z,99575.77
2019-02-17T23:03:26.159Z,99576.14
2019-02-17T23:05:55.596Z,99571.88
2019-02-17T23:08:25.573Z,99573.98
2019-02-17T23:10:55.008Z,99574.45
2019-02-17T23:13:24.443Z,99570.64
2019-02-17T23:15:53.872Z,99572.72
2019-02-17T23:18:23.313Z,99576.11
2019-02-17T23:20:52.746Z,99567.97
2019-02-17T23:23:22.183Z,99567.10
2019-02-17T23:25:51.614Z,99567.52
2019-02-17T23:28:21.052Z,99573.14
2019-02-17T23:30:50.494Z,99573.17
2019-02-17T23:33:19.918Z,99572.72
2019-02-17T23:35:49.349Z,99577.43
2019-02-17T23:38:18.790Z,99575.80
2019-02-17T23:40:48.212Z,99577.52
2019-02-17T23:43:17.658Z,99574.58
2019-02-17T23:45:48.733Z,99573.81
2019-02-17T23:48:18.241Z,99572.07
2019-02-17T23:50:47.670Z,99571.59
2019-02-17T23:53:17.483Z,99570.30
2019-02-17T23:55:48.558Z,99578.04
2019-02-17T23:58:17.989Z,99570.76
